Pazifik — ZDKS7 — position and weather

sailwx.info

Track history (hours):
 
Tides and Currents Weather Stations Pressure Air Temp Water Temp Dewpoint Dewpoint Depression Visibility Wind Speed Wind Dir Waves Ship Positions

Pazifik

Last reported at 2017-Apr-24 00:23 UTC. Time now 2017-Apr-27 05:20 UTC.
Position N 36°16' W 008°53'.

Length 205 m; draft 11.3 m.

Type: Ship (hazmat cat A). MMSI: 236111796.

Date/timePositionNaut miles runAvg speedWind from/ knotsBaromVisibWave heightAir tempDewpointWater temp
2017-Apr-24 00:23N 36°16' W 008°53'514.6
2017-Apr-24 00:00N 36°21' W 008°56'713.7
2017-Apr-23 23:30N 36°26' W 009°01'714.4
2017-Apr-23 23:01N 36°28' W 009°10'714.4
2017-Apr-23 22:30N 36°30' W 009°19'714.2
2017-Apr-23 22:00N 36°34' W 009°26'714.6
2017-Apr-23 21:30N 36°40' W 009°32'714.6
2017-Apr-23 21:00N 36°45' W 009°38'714.9
2017-Apr-23 20:30N 36°52' W 009°40'714.9
2017-Apr-23 20:00N 36°60' W 009°42'714.9
2017-Apr-23 19:30N 37°07' W 009°44'714.9
2017-Apr-23 19:01N 37°14' W 009°46'714.8
2017-Apr-23 18:30N 37°21' W 009°48'815.1
2017-Apr-23 18:01N 37°29' W 009°50'714.9
2017-Apr-23 17:30N 37°36' W 009°53'714.7
2017-Apr-23 17:01N 37°43' W 009°55'815.0
2017-Apr-23 16:30N 37°50' W 009°57'714.8
2017-Apr-23 16:01N 37°57' W 009°59'714.9
2017-Apr-23 15:31N 38°05' W 010°01'714.7
2017-Apr-23 15:01N 38°12' W 010°03'1514.6
2017-Apr-23 14:00N 38°26' W 010°07'714.5
2017-Apr-23 13:30N 38°33' W 010°09'714.3
2017-Apr-23 13:01N 38°40' W 010°11'714.5
2017-Apr-23 12:30N 38°47' W 010°12'714.5
2017-Apr-23 12:01N 38°55' W 010°12'714.5
2017-Apr-23 11:30N 39°02' W 010°11'714.9
2017-Apr-23 11:00N 39°09' W 010°12'714.9
2017-Apr-23 10:30N 39°17' W 010°11'714.9
2017-Apr-23 10:00N 39°24' W 010°11'714.9
2017-Apr-23 09:30N 39°32' W 010°11'714.8
2017-Apr-23 09:00N 39°39' W 010°12'714.7
2017-Apr-23 08:30N 39°46' W 010°12'714.7
2017-Apr-23 08:00N 39°54' W 010°12'714.7
2017-Apr-23 07:30N 40°01' W 010°12'714.8
2017-Apr-23 07:00N 40°08' W 010°12'714.9
2017-Apr-23 06:30N 40°16' W 010°12'714.9
2017-Apr-23 06:00N 40°23' W 010°12'714.9
2017-Apr-23 05:30N 40°31' W 010°11'815.1
2017-Apr-23 05:00N 40°38' W 010°11'815.3
2017-Apr-23 04:30N 40°46' W 010°11'715.0
2017-Apr-23 04:00N 40°53' W 010°11'815.0
2017-Apr-23 03:30N 41°01' W 010°12'814.9
2017-Apr-23 02:59N 41°09' W 010°12'26114.6
2017-Apr-22 09:09N 45°21' W 008°39'214.3
2017-Apr-22 09:00N 45°23' W 008°38'715.0
2017-Apr-22 08:30N 45°29' W 008°33'815.3
2017-Apr-22 08:00N 45°36' W 008°28'815.3
2017-Apr-22 07:30N 45°43' W 008°23'815.3
2017-Apr-22 07:01N 45°50' W 008°18'815.2
2017-Apr-22 06:28N 45°57' W 008°12'715.5
2017-Apr-22 06:00N 46°04' W 008°07'815.4
2017-Apr-22 05:30N 46°10' W 008°02'815.4
2017-Apr-22 05:00N 46°17' W 007°58'815.5
2017-Apr-22 04:30N 46°24' W 007°53'815.4
2017-Apr-22 04:01N 46°31' W 007°47'815.3
2017-Apr-22 03:30N 46°37' W 007°41'815.5
2017-Apr-22 03:00N 46°44' W 007°35'915.5
2017-Apr-22 02:26N 46°51' W 007°28'915.5
2017-Apr-22 01:51N 46°59' W 007°21'815.1
2017-Apr-22 01:17N 47°07' W 007°16'1315.6
2017-Apr-22 00:27N 47°18' W 007°07'715.4
2017-Apr-22 00:00N 47°24' W 007°02'815.2
2017-Apr-21 23:30N 47°31' W 006°56'6015.1
2017-Apr-21 19:30N 48°24' W 006°14'1015.7
2017-Apr-21 18:53N 48°33' W 006°07'916.0
2017-Apr-21 18:21N 48°40' W 006°01'716.1
2017-Apr-21 17:55N 48°46' W 005°55'716.1
2017-Apr-21 17:31N 48°52' W 005°50'815.4
2017-Apr-21 17:01N 48°57' W 005°41'815.4
2017-Apr-21 16:31N 49°01' W 005°31'713.6
2017-Apr-21 16:00N 49°04' W 005°22'510.6
2017-Apr-21 15:30N 49°07' W 005°15'510.4
2017-Apr-21 15:00N 49°09' W 005°08'5 9.7
2017-Apr-21 14:28N 49°12' W 005°02'2214.9
2017-Apr-21 12:58N 49°23' W 004°32'4915.1
2017-Apr-21 09:42N 49°48' W 003°26'315.8
2017-Apr-21 09:30N 49°49' W 003°22'1016.0
2017-Apr-21 08:52N 49°55' W 003°08'615.8
2017-Apr-21 08:31N 49°57' W 002°60'815.9
2017-Apr-21 08:01N 49°59' W 002°48'815.9
2017-Apr-21 07:29N 50°01' W 002°36'1215.7
2017-Apr-21 06:44N 50°05' W 002°18'415.4
2017-Apr-21 06:30N 50°06' W 002°13'1614.9
2017-Apr-21 05:25N 50°10' W 001°48'614.3
2017-Apr-21 05:00N 50°11' W 001°39'1413.9
2017-Apr-21 04:00N 50°15' W 001°19'913.4
2017-Apr-21 03:19N 50°18' W 001°05'413.4
2017-Apr-21 03:00N 50°19' W 000°59'713.6
2017-Apr-21 02:30N 50°22' W 000°49'1013.8
2017-Apr-21 01:45N 50°24' W 000°33'314.0
2017-Apr-21 01:30N 50°25' W 000°28'714.4
2017-Apr-21 01:00N 50°27' W 000°17'714.8
2017-Apr-21 00:30N 50°29' W 000°06'815.1
2017-Apr-21 00:00N 50°31' E 000°06'815.3
2017-Apr-20 23:30N 50°33' E 000°17'815.5
2017-Apr-20 23:00N 50°35' E 000°29'915.3
2017-Apr-20 22:24N 50°39' E 000°42'715.3
2017-Apr-20 21:58N 50°43' E 000°51'1214.9
2017-Apr-20 21:08N 50°49' E 001°08'614.4
2017-Apr-20 20:42N 50°53' E 001°16'514.1
2017-Apr-20 20:19N 50°57' E 001°21'413.9
2017-Apr-20 20:00N 51°01' E 001°26'713.6
2017-Apr-20 19:31N 51°05' E 001°33'713.5
2017-Apr-20 19:01N 51°10' E 001°41'713.7
2017-Apr-20 18:30N 51°15' E 001°49'713.8
2017-Apr-20 18:00N 51°21' E 001°55'713.8
2017-Apr-20 17:31N 51°27' E 002°00'714.8
2017-Apr-20 17:00N 51°32' E 002°08'815.0
2017-Apr-20 16:30N 51°37' E 002°17'815.4
2017-Apr-20 16:00N 51°44' E 002°24'815.2
2017-Apr-20 15:29N 51°50' E 002°32'715.6
2017-Apr-20 15:00N 51°55' E 002°40'2014.7
2017-Apr-20 13:39N 52°03' E 003°10'314.8
2017-Apr-20 13:27N 52°03' E 003°15'714.9
2017-Apr-20 13:00N 52°03' E 003°26'714.6
2017-Apr-20 12:30N 52°03' E 003°38'713.7
2017-Apr-20 12:00N 52°02' E 003°49'4 7.5
2017-Apr-20 11:30N 52°02' E 003°55'611.5
2017-Apr-20 11:00N 51°59' E 004°03'510.6
2017-Apr-20 10:30N 51°57' E 004°10'1 1.4
2017-Apr-20 10:00N 51°56' E 004°11'0 0.0
2017-Apr-20 09:30N 51°56' E 004°11'0 0.0
2017-Apr-20 09:00N 51°56' E 004°11'0 0.0
2017-Apr-20 08:30N 51°56' E 004°11'0 0.0
2017-Apr-20 08:00N 51°56' E 004°11'0 0.0
2017-Apr-20 07:30N 51°56' E 004°11'0 0.0
2017-Apr-20 06:57N 51°56' E 004°11'0 0.0
2017-Apr-20 06:30N 51°56' E 004°11'0 0.0
2017-Apr-20 06:00N 51°56' E 004°11'0 0.0
2017-Apr-20 05:30N 51°56' E 004°11'0 0.0
2017-Apr-20 05:00N 51°56' E 004°11'0 0.0
2017-Apr-20 04:30N 51°56' E 004°11'0 0.0
2017-Apr-20 04:00N 51°56' E 004°11'0 0.0
2017-Apr-20 03:30N 51°56' E 004°11'0 0.0
2017-Apr-20 03:00N 51°56' E 004°11'0 0.0
2017-Apr-20 02:30N 51°56' E 004°11'0 0.0
2017-Apr-20 02:00N 51°56' E 004°11'0 0.0
2017-Apr-20 01:30N 51°56' E 004°11'0 0.0
2017-Apr-20 01:00N 51°56' E 004°11'0 0.0
2017-Apr-20 00:30N 51°56' E 004°11'0 0.0
2017-Apr-20 00:00N 51°56' E 004°11'0 0.0
2017-Apr-19 23:24N 51°56' E 004°11'0 0.0
2017-Apr-19 23:00N 51°56' E 004°11'0 0.0
2017-Apr-19 22:30N 51°56' E 004°11'0 0.0
2017-Apr-19 22:00N 51°56' E 004°11'0 0.0
2017-Apr-19 21:30N 51°56' E 004°11'0 0.0
2017-Apr-19 21:00N 51°56' E 004°11'0 0.0
2017-Apr-19 20:30N 51°56' E 004°11'0 0.0
2017-Apr-19 19:57N 51°56' E 004°11'0 0.0
2017-Apr-19 19:30N 51°56' E 004°11'0 0.0
2017-Apr-19 19:00N 51°56' E 004°11'0 0.0
2017-Apr-19 18:30N 51°56' E 004°11'0 0.0
2017-Apr-19 18:00N 51°56' E 004°11'0 0.0
2017-Apr-19 17:30N 51°56' E 004°11'0 0.0
2017-Apr-19 17:00N 51°56' E 004°11'0 0.0
2017-Apr-19 16:30N 51°56' E 004°11'0 0.0
2017-Apr-19 16:00N 51°56' E 004°11'0 0.0
2017-Apr-19 15:27N 51°56' E 004°11'0 0.0
2017-Apr-19 15:00N 51°56' E 004°11'0 0.0
2017-Apr-19 14:30N 51°56' E 004°11'0 0.0
2017-Apr-19 13:24N 51°56' E 004°11'0 0.0
2017-Apr-19 13:00N 51°56' E 004°11'0 0.0
2017-Apr-19 12:27N 51°56' E 004°11'0 0.0
2017-Apr-19 12:00N 51°56' E 004°11'0 0.0
2017-Apr-19 11:21N 51°56' E 004°11'0 0.0
2017-Apr-19 10:57N 51°56' E 004°11'0 0.0
2017-Apr-19 10:30N 51°56' E 004°11'0 0.0
2017-Apr-19 10:00N 51°56' E 004°11'0 0.0
2017-Apr-19 09:30N 51°56' E 004°11'0 0.0
2017-Apr-19 09:00N 51°56' E 004°11'0 0.0
2017-Apr-19 08:27N 51°56' E 004°11'0 0.0
2017-Apr-19 08:00N 51°56' E 004°11'0 0.0
2017-Apr-19 07:30N 51°56' E 004°11'0 0.0
2017-Apr-19 07:00N 51°56' E 004°11'0 0.0
2017-Apr-19 06:27N 51°56' E 004°11'0 0.0
2017-Apr-19 06:00N 51°56' E 004°11'0 0.0
2017-Apr-19 05:30N 51°56' E 004°11'0 0.0
2017-Apr-19 05:00N 51°56' E 004°11'0 0.0
2017-Apr-19 04:27N 51°56' E 004°11'0 0.0
2017-Apr-19 04:00N 51°56' E 004°11'0 0.0
2017-Apr-19 03:30N 51°56' E 004°11'0 0.0
2017-Apr-19 03:00N 51°56' E 004°11'0 0.0
2017-Apr-19 02:27N 51°56' E 004°11'0 0.0
2017-Apr-19 01:57N 51°56' E 004°11'0 0.0
2017-Apr-19 01:30N 51°56' E 004°11'0 0.0
2017-Apr-19 01:00N 51°56' E 004°11'0 0.0
2017-Apr-19 00:30N 51°56' E 004°11'0 0.0
2017-Apr-18 23:54N 51°56' E 004°11'0 0.0
2017-Apr-18 23:30N 51°56' E 004°11'0 0.0
2017-Apr-18 23:00N 51°56' E 004°11'0 0.0
2017-Apr-18 22:30N 51°56' E 004°11'0 0.0
2017-Apr-18 22:00N 51°56' E 004°11'0 0.0
2017-Apr-18 21:30N 51°56' E 004°11'0 0.0
2017-Apr-18 20:57N 51°56' E 004°11'0 0.0
2017-Apr-18 20:27N 51°56' E 004°11'0 0.0
2017-Apr-18 20:00N 51°56' E 004°11'0 0.3
2017-Apr-18 19:31N 51°56' E 004°11'2 4.0
2017-Apr-18 19:01N 51°57' E 004°08'510.2
2017-Apr-18 18:31N 51°60' E 004°01'612.8
2017-Apr-18 18:01N 52°00' E 003°51'4 8.4
2017-Apr-18 17:31N 51°59' E 003°44'3 6.8
2017-Apr-18 17:00N 51°58' E 003°39'713.9
2017-Apr-18 16:30N 51°56' E 003°28'814.8
2017-Apr-18 16:00N 51°54' E 003°16'814.7
2017-Apr-18 15:29N 51°52' E 003°04'714.3
2017-Apr-18 15:00N 51°50' E 002°54'714.0
2017-Apr-18 14:29N 51°47' E 002°43'1313.2
2017-Apr-18 13:29N 51°38' E 002°27'613.3
2017-Apr-18 13:00N 51°34' E 002°20'613.0
2017-Apr-18 12:30N 51°29' E 002°13'612.8
2017-Apr-18 12:01N 51°25' E 002°05'612.5
2017-Apr-18 11:30N 51°19' E 002°08'612.2
2017-Apr-18 11:00N 51°14' E 002°02'612.3
2017-Apr-18 10:31N 51°10' E 001°54'612.2
2017-Apr-18 10:00N 51°07' E 001°46'612.1
2017-Apr-18 09:31N 51°03' E 001°40'611.5
2017-Apr-18 09:01N 50°59' E 001°33'712.7
2017-Apr-18 08:30N 50°53' E 001°29'5413.4
2017-Apr-18 04:29N 50°24' E 000°18'715.1
2017-Apr-18 04:00N 50°22' E 000°07'815.2
2017-Apr-18 03:30N 50°21' W 000°05'815.5
2017-Apr-18 03:00N 50°21' W 000°17'815.8
2017-Apr-18 02:30N 50°22' W 000°29'815.5
2017-Apr-18 02:00N 50°27' W 000°39'816.2
2017-Apr-18 01:30N 50°33' W 000°48'815.8
2017-Apr-18 01:00N 50°39' W 000°56'510.0
2017-Apr-18 00:31N 50°43' W 001°00'815.5
2017-Apr-18 00:01N 50°46' W 001°12'5 9.5
2017-Apr-17 23:30N 50°49' W 001°17'2 4.8
2017-Apr-17 23:00N 50°50' W 001°20'0 0.0
2017-Apr-17 22:29N 50°50' W 001°20'0 0.0
2017-Apr-17 21:05N 50°50' W 001°20'0 0.0
2017-Apr-17 13:17N 50°50' W 001°20'0 0.0
2017-Apr-17 12:59N 50°50' W 001°20'0 0.0
2017-Apr-17 12:23N 50°50' W 001°20'0 0.0
2017-Apr-17 11:56N 50°50' W 001°20'0 0.0
2017-Apr-17 11:29N 50°50' W 001°20'0 0.0
2017-Apr-17 10:59N 50°50' W 001°20'0 0.0
2017-Apr-17 10:29N 50°50' W 001°20'0 0.0
2017-Apr-17 09:59N 50°50' W 001°20'0 0.0
2017-Apr-17 09:29N 50°50' W 001°20'0 0.0
2017-Apr-17 08:59N 50°50' W 001°20'0 0.0
2017-Apr-17 08:29N 50°50' W 001°20'0 0.0
2017-Apr-17 07:59N 50°50' W 001°20'0 0.0
2017-Apr-17 07:29N 50°50' W 001°20'0 0.0
2017-Apr-17 06:53N 50°50' W 001°20'0 0.0
2017-Apr-17 06:29N 50°50' W 001°20'0 0.0
2017-Apr-17 05:56N 50°51' W 001°20'0 0.0
2017-Apr-17 05:26N 50°50' W 001°20'0 0.0
2017-Apr-17 04:59N 50°50' W 001°20'0 0.0
2017-Apr-17 04:29N 50°50' W 001°20'0 0.0
2017-Apr-17 03:59N 50°51' W 001°20'0 0.0
2017-Apr-17 03:29N 50°50' W 001°20'0 0.0
2017-Apr-17 02:59N 50°51' W 001°20'0 0.0
2017-Apr-17 02:29N 50°50' W 001°20'0 0.0
2017-Apr-17 01:59N 50°50' W 001°20'0 0.0
2017-Apr-17 01:29N 50°50' W 001°20'0 0.0
2017-Apr-17 00:59N 50°50' W 001°20'0 0.0
2017-Apr-17 00:29N 50°51' W 001°20'0 0.0
2017-Apr-16 23:59N 50°50' W 001°20'0 0.0
2017-Apr-16 23:29N 50°50' W 001°20'0 0.0
2017-Apr-16 22:59N 50°50' W 001°20'0 0.0
2017-Apr-16 22:29N 50°50' W 001°20'0 0.0
2017-Apr-16 21:59N 50°50' W 001°20'0 0.0
2017-Apr-16 21:29N 50°51' W 001°20'0 0.0
2017-Apr-16 20:59N 50°50' W 001°20'0 0.0
2017-Apr-16 20:29N 50°50' W 001°20'0 0.0
2017-Apr-16 19:59N 50°50' W 001°20'0 0.0
2017-Apr-16 19:29N 50°50' W 001°20'0 0.0
2017-Apr-16 18:59N 50°50' W 001°20'0 0.0
2017-Apr-16 18:29N 50°50' W 001°20'0 0.0
2017-Apr-16 17:59N 50°50' W 001°20'0 0.0
2017-Apr-16 17:29N 50°50' W 001°20'0 0.0
2017-Apr-16 16:59N 50°50' W 001°20'0 0.0
2017-Apr-16 16:29N 50°51' W 001°20'0 0.0
2017-Apr-16 15:59N 50°51' W 001°20'0 0.0
2017-Apr-16 15:29N 50°50' W 001°20'0 0.0
2017-Apr-16 14:56N 50°50' W 001°20'2 2.0
2017-Apr-16 14:01N 50°49' W 001°18'3 5.8
2017-Apr-16 13:30N 50°47' W 001°15'4 7.8
2017-Apr-16 13:01N 50°46' W 001°09'4 7.9
2017-Apr-16 12:30N 50°44' W 001°04'3 6.0
2017-Apr-16 12:00N 50°43' W 000°59'3 5.5
2017-Apr-16 11:30N 50°40' W 000°58'3 6.7
2017-Apr-16 11:01N 50°38' W 001°01'0 0.3
2017-Apr-16 10:24N 50°38' W 001°01'0 0.0
2017-Apr-16 10:00N 50°38' W 001°01'0 0.0
2017-Apr-16 09:30N 50°38' W 001°01'0 0.0
2017-Apr-16 09:00N 50°38' W 001°01'0 0.0
2017-Apr-16 08:27N 50°38' W 001°01'0 0.1
2017-Apr-16 08:00N 50°38' W 001°01'0 0.1
2017-Apr-16 07:27N 50°38' W 001°01'0 0.2
2017-Apr-16 07:00N 50°38' W 001°01'0 0.1
2017-Apr-16 06:30N 50°38' W 001°02'0 0.0
2017-Apr-16 06:00N 50°38' W 001°02'0 0.0
2017-Apr-16 05:30N 50°38' W 001°02'0 0.0
2017-Apr-16 05:00N 50°38' W 001°02'0 0.0
2017-Apr-16 04:30N 50°38' W 001°02'0 0.0
2017-Apr-16 04:00N 50°38' W 001°02'0 0.0
2017-Apr-16 03:30N 50°38' W 001°02'0 0.0
2017-Apr-16 03:00N 50°38' W 001°02'0 0.1
2017-Apr-16 02:30N 50°38' W 001°02'0 0.3
2017-Apr-16 02:00N 50°38' W 001°01'0 0.2
2017-Apr-16 01:30N 50°38' W 001°01'0 0.0
2017-Apr-16 01:00N 50°38' W 001°01'0 0.2
2017-Apr-16 00:30N 50°38' W 001°01'0 0.0
2017-Apr-16 00:00N 50°38' W 001°01'0 0.0
2017-Apr-15 23:27N 50°38' W 001°01'0 0.0
2017-Apr-15 22:57N 50°38' W 001°01'0 0.0
2017-Apr-15 22:21N 50°38' W 001°01'0 0.0
2017-Apr-15 22:00N 50°38' W 001°01'0 0.0
2017-Apr-15 21:30N 50°38' W 001°01'0 0.0
2017-Apr-15 21:00N 50°38' W 001°01'0 0.0
2017-Apr-15 20:24N 50°38' W 001°01'0 0.0
2017-Apr-15 20:00N 50°38' W 001°01'0 0.0
2017-Apr-15 19:27N 50°38' W 001°01'0 0.2
2017-Apr-15 19:00N 50°38' W 001°01'0 0.2
2017-Apr-15 18:30N 50°38' W 001°01'0 0.1
2017-Apr-15 18:00N 50°38' W 001°02'0 0.0
2017-Apr-15 17:30N 50°38' W 001°02'0 0.0
2017-Apr-15 17:00N 50°38' W 001°02'0 0.0
2017-Apr-15 16:30N 50°38' W 001°02'0 0.0
2017-Apr-15 16:00N 50°38' W 001°02'0 0.0
2017-Apr-15 15:30N 50°38' W 001°02'0 0.0
2017-Apr-15 15:00N 50°38' W 001°02'0 0.0
2017-Apr-15 14:30N 50°38' W 001°02'0 0.2
2017-Apr-15 13:30N 50°38' W 001°01'0 0.1
2017-Apr-15 13:00N 50°38' W 001°01'0 0.1
2017-Apr-15 12:30N 50°38' W 001°01'0 0.1
2017-Apr-15 12:00N 50°38' W 001°01'0 0.0
2017-Apr-15 11:27N 50°38' W 001°01'0 0.0
2017-Apr-15 11:00N 50°38' W 001°01'0 0.0
2017-Apr-15 10:30N 50°38' W 001°01'0 0.0
2017-Apr-15 10:00N 50°38' W 001°01'0 0.0
2017-Apr-15 09:27N 50°38' W 001°01'0 0.0
2017-Apr-15 08:57N 50°38' W 001°01'0 0.0
2017-Apr-15 08:30N 50°38' W 001°01'0 0.0
2017-Apr-15 07:57N 50°38' W 001°01'0 0.0
2017-Apr-15 07:21N 50°38' W 001°01'0 0.2
2017-Apr-15 06:51N 50°38' W 001°01'0 0.3
2017-Apr-15 06:30N 50°38' W 001°01'0 0.1
2017-Apr-15 06:00N 50°38' W 001°02'0 0.0
2017-Apr-15 05:30N 50°38' W 001°02'0 0.0
2017-Apr-15 05:00N 50°38' W 001°02'0 0.0
2017-Apr-15 04:30N 50°38' W 001°02'0 0.0
2017-Apr-15 04:00N 50°38' W 001°02'0 0.0
2017-Apr-15 03:30N 50°38' W 001°02'0 0.0
2017-Apr-15 03:00N 50°38' W 001°02'0 0.0
2017-Apr-15 02:30N 50°38' W 001°02'0 0.2
2017-Apr-15 02:00N 50°38' W 001°01'0 0.4
2017-Apr-15 01:30N 50°38' W 001°01'0 0.1
2017-Apr-15 01:00N 50°38' W 001°01'0 0.0
2017-Apr-15 00:30N 50°38' W 001°01'0 0.0
2017-Apr-14 23:57N 50°38' W 001°01'0 0.0
2017-Apr-14 23:27N 50°38' W 001°01'0 0.0
2017-Apr-14 23:00N 50°38' W 001°01'0 0.0
2017-Apr-14 22:27N 50°38' W 001°01'0 0.0
2017-Apr-14 22:00N 50°38' W 001°01'0 0.0
2017-Apr-14 21:30N 50°38' W 001°01'0 0.0
2017-Apr-14 20:54N 50°38' W 001°01'0 0.0
2017-Apr-14 20:24N 50°38' W 001°01'0 0.0
2017-Apr-14 19:57N 50°38' W 001°01'0 0.1
2017-Apr-14 19:30N 50°38' W 001°01'0 0.0
2017-Apr-14 19:00N 50°38' W 001°01'0 0.2
2017-Apr-14 18:30N 50°38' W 001°01'0 0.3
2017-Apr-14 18:01N 50°38' W 001°01'1 2.6
2017-Apr-14 17:31N 50°39' W 000°60'4 8.2
2017-Apr-14 17:00N 50°43' W 000°59'713.4
2017-Apr-14 16:30N 50°46' W 001°09'612.6
2017-Apr-14 16:00N 50°47' W 001°19'4 7.8
2017-Apr-14 15:31N 50°51' W 001°20'0 0.1
2017-Apr-14 14:59N 50°51' W 001°20'0 0.0
2017-Apr-14 14:29N 50°51' W 001°20'0 0.0
2017-Apr-14 13:29N 50°51' W 001°20'0 0.0
2017-Apr-14 12:59N 50°51' W 001°20'0 0.0
2017-Apr-14 12:29N 50°51' W 001°20'0 0.0
2017-Apr-14 11:59N 50°51' W 001°20'0 0.0
2017-Apr-14 11:29N 50°51' W 001°20'0 0.0
2017-Apr-14 10:59N 50°51' W 001°20'0 0.0
2017-Apr-14 10:29N 50°51' W 001°20'0 0.0
2017-Apr-14 09:59N 50°51' W 001°20'0 0.0
2017-Apr-14 09:26N 50°51' W 001°20'0 0.0
2017-Apr-14 08:59N 50°51' W 001°20'0 0.0
2017-Apr-14 08:29N 50°51' W 001°20'0 0.0
2017-Apr-14 07:56N 50°51' W 001°20'0 0.0
2017-Apr-14 07:29N 50°51' W 001°20'0 0.0
2017-Apr-14 06:59N 50°51' W 001°20'0 0.0
2017-Apr-14 06:26N 50°51' W 001°20'0 0.0
2017-Apr-14 05:59N 50°51' W 001°20'0 0.0
2017-Apr-14 05:29N 50°51' W 001°20'0 0.0
2017-Apr-14 04:59N 50°51' W 001°20'0 0.0
2017-Apr-14 04:29N 50°51' W 001°20'0 0.0
2017-Apr-14 03:59N 50°51' W 001°20'0 0.0
2017-Apr-14 03:29N 50°51' W 001°20'0 0.0
2017-Apr-14 02:59N 50°51' W 001°20'0 0.0
2017-Apr-14 02:29N 50°51' W 001°20'0 0.0
2017-Apr-14 01:59N 50°51' W 001°20'0 0.0
2017-Apr-14 01:29N 50°51' W 001°20'0 0.0
2017-Apr-14 00:59N 50°51' W 001°20'0 0.0
2017-Apr-14 00:29N 50°51' W 001°20'  
Track history (hours):
 
Tides and Currents Weather Stations Pressure Air Temp Water Temp Dewpoint Dewpoint Depression Visibility Wind Speed Wind Dir Waves Ship Positions

Pazifik

Last reported at 2017-Apr-24 00:23 UTC. Time now 2017-Apr-27 05:20 UTC.
Position N 36°16' W 008°53'.

Length 205 m; draft 11.3 m.

Type: Ship (hazmat cat A). MMSI: 236111796.

Date/timePositionNaut miles runAvg speedWind from/ knotsBaromVisibWave heightAir tempDewpointWater temp
2017-Apr-24 00:23N 36°16' W 008°53'514.6
2017-Apr-24 00:00N 36°21' W 008°56'713.7
2017-Apr-23 23:30N 36°26' W 009°01'714.4
2017-Apr-23 23:01N 36°28' W 009°10'714.4
2017-Apr-23 22:30N 36°30' W 009°19'714.2
2017-Apr-23 22:00N 36°34' W 009°26'714.6
2017-Apr-23 21:30N 36°40' W 009°32'714.6
2017-Apr-23 21:00N 36°45' W 009°38'714.9
2017-Apr-23 20:30N 36°52' W 009°40'714.9
2017-Apr-23 20:00N 36°60' W 009°42'714.9
2017-Apr-23 19:30N 37°07' W 009°44'714.9
2017-Apr-23 19:01N 37°14' W 009°46'714.8
2017-Apr-23 18:30N 37°21' W 009°48'815.1
2017-Apr-23 18:01N 37°29' W 009°50'714.9
2017-Apr-23 17:30N 37°36' W 009°53'714.7
2017-Apr-23 17:01N 37°43' W 009°55'815.0
2017-Apr-23 16:30N 37°50' W 009°57'714.8
2017-Apr-23 16:01N 37°57' W 009°59'714.9
2017-Apr-23 15:31N 38°05' W 010°01'714.7
2017-Apr-23 15:01N 38°12' W 010°03'1514.6
2017-Apr-23 14:00N 38°26' W 010°07'714.5
2017-Apr-23 13:30N 38°33' W 010°09'714.3
2017-Apr-23 13:01N 38°40' W 010°11'714.5
2017-Apr-23 12:30N 38°47' W 010°12'714.5
2017-Apr-23 12:01N 38°55' W 010°12'714.5
2017-Apr-23 11:30N 39°02' W 010°11'714.9
2017-Apr-23 11:00N 39°09' W 010°12'714.9
2017-Apr-23 10:30N 39°17' W 010°11'714.9
2017-Apr-23 10:00N 39°24' W 010°11'714.9
2017-Apr-23 09:30N 39°32' W 010°11'714.8
2017-Apr-23 09:00N 39°39' W 010°12'714.7
2017-Apr-23 08:30N 39°46' W 010°12'714.7
2017-Apr-23 08:00N 39°54' W 010°12'714.7
2017-Apr-23 07:30N 40°01' W 010°12'714.8
2017-Apr-23 07:00N 40°08' W 010°12'714.9
2017-Apr-23 06:30N 40°16' W 010°12'714.9
2017-Apr-23 06:00N 40°23' W 010°12'714.9
2017-Apr-23 05:30N 40°31' W 010°11'815.1
2017-Apr-23 05:00N 40°38' W 010°11'815.3
2017-Apr-23 04:30N 40°46' W 010°11'715.0
2017-Apr-23 04:00N 40°53' W 010°11'815.0
2017-Apr-23 03:30N 41°01' W 010°12'814.9
2017-Apr-23 02:59N 41°09' W 010°12'26114.6
2017-Apr-22 09:09N 45°21' W 008°39'214.3
2017-Apr-22 09:00N 45°23' W 008°38'715.0
2017-Apr-22 08:30N 45°29' W 008°33'815.3
2017-Apr-22 08:00N 45°36' W 008°28'815.3
2017-Apr-22 07:30N 45°43' W 008°23'815.3
2017-Apr-22 07:01N 45°50' W 008°18'815.2
2017-Apr-22 06:28N 45°57' W 008°12'715.5
2017-Apr-22 06:00N 46°04' W 008°07'815.4
2017-Apr-22 05:30N 46°10' W 008°02'815.4
2017-Apr-22 05:00N 46°17' W 007°58'815.5
2017-Apr-22 04:30N 46°24' W 007°53'815.4
2017-Apr-22 04:01N 46°31' W 007°47'815.3
2017-Apr-22 03:30N 46°37' W 007°41'815.5
2017-Apr-22 03:00N 46°44' W 007°35'915.5
2017-Apr-22 02:26N 46°51' W 007°28'915.5
2017-Apr-22 01:51N 46°59' W 007°21'815.1
2017-Apr-22 01:17N 47°07' W 007°16'1315.6
2017-Apr-22 00:27N 47°18' W 007°07'715.4
2017-Apr-22 00:00N 47°24' W 007°02'815.2
2017-Apr-21 23:30N 47°31' W 006°56'6015.1
2017-Apr-21 19:30N 48°24' W 006°14'1015.7
2017-Apr-21 18:53N 48°33' W 006°07'916.0
2017-Apr-21 18:21N 48°40' W 006°01'716.1
2017-Apr-21 17:55N 48°46' W 005°55'716.1
2017-Apr-21 17:31N 48°52' W 005°50'815.4
2017-Apr-21 17:01N 48°57' W 005°41'815.4
2017-Apr-21 16:31N 49°01' W 005°31'713.6
2017-Apr-21 16:00N 49°04' W 005°22'510.6
2017-Apr-21 15:30N 49°07' W 005°15'510.4
2017-Apr-21 15:00N 49°09' W 005°08'5 9.7
2017-Apr-21 14:28N 49°12' W 005°02'2214.9
2017-Apr-21 12:58N 49°23' W 004°32'4915.1
2017-Apr-21 09:42N 49°48' W 003°26'315.8
2017-Apr-21 09:30N 49°49' W 003°22'1016.0
2017-Apr-21 08:52N 49°55' W 003°08'615.8
2017-Apr-21 08:31N 49°57' W 002°60'815.9
2017-Apr-21 08:01N 49°59' W 002°48'815.9
2017-Apr-21 07:29N 50°01' W 002°36'1215.7
2017-Apr-21 06:44N 50°05' W 002°18'415.4
2017-Apr-21 06:30N 50°06' W 002°13'1614.9
2017-Apr-21 05:25N 50°10' W 001°48'614.3
2017-Apr-21 05:00N 50°11' W 001°39'1413.9
2017-Apr-21 04:00N 50°15' W 001°19'913.4
2017-Apr-21 03:19N 50°18' W 001°05'413.4
2017-Apr-21 03:00N 50°19' W 000°59'713.6
2017-Apr-21 02:30N 50°22' W 000°49'1013.8
2017-Apr-21 01:45N 50°24' W 000°33'314.0
2017-Apr-21 01:30N 50°25' W 000°28'714.4
2017-Apr-21 01:00N 50°27' W 000°17'714.8
2017-Apr-21 00:30N 50°29' W 000°06'815.1
2017-Apr-21 00:00N 50°31' E 000°06'815.3
2017-Apr-20 23:30N 50°33' E 000°17'815.5
2017-Apr-20 23:00N 50°35' E 000°29'915.3
2017-Apr-20 22:24N 50°39' E 000°42'715.3
2017-Apr-20 21:58N 50°43' E 000°51'1214.9
2017-Apr-20 21:08N 50°49' E 001°08'614.4
2017-Apr-20 20:42N 50°53' E 001°16'514.1
2017-Apr-20 20:19N 50°57' E 001°21'413.9
2017-Apr-20 20:00N 51°01' E 001°26'713.6
2017-Apr-20 19:31N 51°05' E 001°33'713.5
2017-Apr-20 19:01N 51°10' E 001°41'713.7
2017-Apr-20 18:30N 51°15' E 001°49'713.8
2017-Apr-20 18:00N 51°21' E 001°55'713.8
2017-Apr-20 17:31N 51°27' E 002°00'714.8
2017-Apr-20 17:00N 51°32' E 002°08'815.0
2017-Apr-20 16:30N 51°37' E 002°17'815.4
2017-Apr-20 16:00N 51°44' E 002°24'815.2
2017-Apr-20 15:29N 51°50' E 002°32'715.6
2017-Apr-20 15:00N 51°55' E 002°40'2014.7
2017-Apr-20 13:39N 52°03' E 003°10'314.8
2017-Apr-20 13:27N 52°03' E 003°15'714.9
2017-Apr-20 13:00N 52°03' E 003°26'714.6
2017-Apr-20 12:30N 52°03' E 003°38'713.7
2017-Apr-20 12:00N 52°02' E 003°49'4 7.5
2017-Apr-20 11:30N 52°02' E 003°55'611.5
2017-Apr-20 11:00N 51°59' E 004°03'510.6
2017-Apr-20 10:30N 51°57' E 004°10'1 1.4
2017-Apr-20 10:00N 51°56' E 004°11'0 0.0
2017-Apr-20 09:30N 51°56' E 004°11'0 0.0
2017-Apr-20 09:00N 51°56' E 004°11'0 0.0
2017-Apr-20 08:30N 51°56' E 004°11'0 0.0
2017-Apr-20 08:00N 51°56' E 004°11'0 0.0
2017-Apr-20 07:30N 51°56' E 004°11'0 0.0
2017-Apr-20 06:57N 51°56' E 004°11'0 0.0
2017-Apr-20 06:30N 51°56' E 004°11'0 0.0
2017-Apr-20 06:00N 51°56' E 004°11'0 0.0
2017-Apr-20 05:30N 51°56' E 004°11'0 0.0
2017-Apr-20 05:00N 51°56' E 004°11'0 0.0
2017-Apr-20 04:30N 51°56' E 004°11'0 0.0
2017-Apr-20 04:00N 51°56' E 004°11'0 0.0
2017-Apr-20 03:30N 51°56' E 004°11'0 0.0
2017-Apr-20 03:00N 51°56' E 004°11'0 0.0
2017-Apr-20 02:30N 51°56' E 004°11'0 0.0
2017-Apr-20 02:00N 51°56' E 004°11'0 0.0
2017-Apr-20 01:30N 51°56' E 004°11'0 0.0
2017-Apr-20 01:00N 51°56' E 004°11'0 0.0
2017-Apr-20 00:30N 51°56' E 004°11'0 0.0
2017-Apr-20 00:00N 51°56' E 004°11'0 0.0
2017-Apr-19 23:24N 51°56' E 004°11'0 0.0
2017-Apr-19 23:00N 51°56' E 004°11'0 0.0
2017-Apr-19 22:30N 51°56' E 004°11'0 0.0
2017-Apr-19 22:00N 51°56' E 004°11'0 0.0
2017-Apr-19 21:30N 51°56' E 004°11'0 0.0
2017-Apr-19 21:00N 51°56' E 004°11'0 0.0
2017-Apr-19 20:30N 51°56' E 004°11'0 0.0
2017-Apr-19 19:57N 51°56' E 004°11'0 0.0
2017-Apr-19 19:30N 51°56' E 004°11'0 0.0
2017-Apr-19 19:00N 51°56' E 004°11'0 0.0
2017-Apr-19 18:30N 51°56' E 004°11'0 0.0
2017-Apr-19 18:00N 51°56' E 004°11'0 0.0
2017-Apr-19 17:30N 51°56' E 004°11'0 0.0
2017-Apr-19 17:00N 51°56' E 004°11'0 0.0
2017-Apr-19 16:30N 51°56' E 004°11'0 0.0
2017-Apr-19 16:00N 51°56' E 004°11'0 0.0
2017-Apr-19 15:27N 51°56' E 004°11'0 0.0
2017-Apr-19 15:00N 51°56' E 004°11'0 0.0
2017-Apr-19 14:30N 51°56' E 004°11'0 0.0
2017-Apr-19 13:24N 51°56' E 004°11'0 0.0
2017-Apr-19 13:00N 51°56' E 004°11'0 0.0
2017-Apr-19 12:27N 51°56' E 004°11'0 0.0
2017-Apr-19 12:00N 51°56' E 004°11'0 0.0
2017-Apr-19 11:21N 51°56' E 004°11'0 0.0
2017-Apr-19 10:57N 51°56' E 004°11'0 0.0
2017-Apr-19 10:30N 51°56' E 004°11'0 0.0
2017-Apr-19 10:00N 51°56' E 004°11'0 0.0
2017-Apr-19 09:30N 51°56' E 004°11'0 0.0
2017-Apr-19 09:00N 51°56' E 004°11'0 0.0
2017-Apr-19 08:27N 51°56' E 004°11'0 0.0
2017-Apr-19 08:00N 51°56' E 004°11'0 0.0
2017-Apr-19 07:30N 51°56' E 004°11'0 0.0
2017-Apr-19 07:00N 51°56' E 004°11'0 0.0
2017-Apr-19 06:27N 51°56' E 004°11'0 0.0
2017-Apr-19 06:00N 51°56' E 004°11'0 0.0
2017-Apr-19 05:30N 51°56' E 004°11'0 0.0
2017-Apr-19 05:00N 51°56' E 004°11'0 0.0
2017-Apr-19 04:27N 51°56' E 004°11'0 0.0
2017-Apr-19 04:00N 51°56' E 004°11'0 0.0
2017-Apr-19 03:30N 51°56' E 004°11'0 0.0
2017-Apr-19 03:00N 51°56' E 004°11'0 0.0
2017-Apr-19 02:27N 51°56' E 004°11'0 0.0
2017-Apr-19 01:57N 51°56' E 004°11'0 0.0
2017-Apr-19 01:30N 51°56' E 004°11'0 0.0
2017-Apr-19 01:00N 51°56' E 004°11'0 0.0
2017-Apr-19 00:30N 51°56' E 004°11'0 0.0
2017-Apr-18 23:54N 51°56' E 004°11'0 0.0
2017-Apr-18 23:30N 51°56' E 004°11'0 0.0
2017-Apr-18 23:00N 51°56' E 004°11'0 0.0
2017-Apr-18 22:30N 51°56' E 004°11'0 0.0
2017-Apr-18 22:00N 51°56' E 004°11'0 0.0
2017-Apr-18 21:30N 51°56' E 004°11'0 0.0
2017-Apr-18 20:57N 51°56' E 004°11'0 0.0
2017-Apr-18 20:27N 51°56' E 004°11'0 0.0
2017-Apr-18 20:00N 51°56' E 004°11'0 0.3
2017-Apr-18 19:31N 51°56' E 004°11'2 4.0
2017-Apr-18 19:01N 51°57' E 004°08'510.2
2017-Apr-18 18:31N 51°60' E 004°01'612.8
2017-Apr-18 18:01N 52°00' E 003°51'4 8.4
2017-Apr-18 17:31N 51°59' E 003°44'3 6.8
2017-Apr-18 17:00N 51°58' E 003°39'713.9
2017-Apr-18 16:30N 51°56' E 003°28'814.8
2017-Apr-18 16:00N 51°54' E 003°16'814.7
2017-Apr-18 15:29N 51°52' E 003°04'714.3
2017-Apr-18 15:00N 51°50' E 002°54'714.0
2017-Apr-18 14:29N 51°47' E 002°43'1313.2
2017-Apr-18 13:29N 51°38' E 002°27'613.3
2017-Apr-18 13:00N 51°34' E 002°20'613.0
2017-Apr-18 12:30N 51°29' E 002°13'612.8
2017-Apr-18 12:01N 51°25' E 002°05'612.5
2017-Apr-18 11:30N 51°19' E 002°08'612.2
2017-Apr-18 11:00N 51°14' E 002°02'612.3
2017-Apr-18 10:31N 51°10' E 001°54'612.2
2017-Apr-18 10:00N 51°07' E 001°46'612.1
2017-Apr-18 09:31N 51°03' E 001°40'611.5
2017-Apr-18 09:01N 50°59' E 001°33'712.7
2017-Apr-18 08:30N 50°53' E 001°29'5413.4
2017-Apr-18 04:29N 50°24' E 000°18'715.1
2017-Apr-18 04:00N 50°22' E 000°07'815.2
2017-Apr-18 03:30N 50°21' W 000°05'815.5
2017-Apr-18 03:00N 50°21' W 000°17'815.8
2017-Apr-18 02:30N 50°22' W 000°29'815.5
2017-Apr-18 02:00N 50°27' W 000°39'816.2
2017-Apr-18 01:30N 50°33' W 000°48'815.8
2017-Apr-18 01:00N 50°39' W 000°56'510.0
2017-Apr-18 00:31N 50°43' W 001°00'815.5
2017-Apr-18 00:01N 50°46' W 001°12'5 9.5
2017-Apr-17 23:30N 50°49' W 001°17'2 4.8
2017-Apr-17 23:00N 50°50' W 001°20'0 0.0
2017-Apr-17 22:29N 50°50' W 001°20'0 0.0
2017-Apr-17 21:05N 50°50' W 001°20'0 0.0
2017-Apr-17 13:17N 50°50' W 001°20'0 0.0
2017-Apr-17 12:59N 50°50' W 001°20'0 0.0
2017-Apr-17 12:23N 50°50' W 001°20'0 0.0
2017-Apr-17 11:56N 50°50' W 001°20'0 0.0
2017-Apr-17 11:29N 50°50' W 001°20'0 0.0
2017-Apr-17 10:59N 50°50' W 001°20'0 0.0
2017-Apr-17 10:29N 50°50' W 001°20'0 0.0
2017-Apr-17 09:59N 50°50' W 001°20'0 0.0
2017-Apr-17 09:29N 50°50' W 001°20'0 0.0
2017-Apr-17 08:59N 50°50' W 001°20'0 0.0
2017-Apr-17 08:29N 50°50' W 001°20'0 0.0
2017-Apr-17 07:59N 50°50' W 001°20'0 0.0
2017-Apr-17 07:29N 50°50' W 001°20'0 0.0
2017-Apr-17 06:53N 50°50' W 001°20'0 0.0
2017-Apr-17 06:29N 50°50' W 001°20'0 0.0
2017-Apr-17 05:56N 50°51' W 001°20'0 0.0
2017-Apr-17 05:26N 50°50' W 001°20'0 0.0
2017-Apr-17 04:59N 50°50' W 001°20'0 0.0
2017-Apr-17 04:29N 50°50' W 001°20'0 0.0
2017-Apr-17 03:59N 50°51' W 001°20'0 0.0
2017-Apr-17 03:29N 50°50' W 001°20'0 0.0
2017-Apr-17 02:59N 50°51' W 001°20'0 0.0
2017-Apr-17 02:29N 50°50' W 001°20'0 0.0
2017-Apr-17 01:59N 50°50' W 001°20'0 0.0
2017-Apr-17 01:29N 50°50' W 001°20'0 0.0
2017-Apr-17 00:59N 50°50' W 001°20'0 0.0
2017-Apr-17 00:29N 50°51' W 001°20'0 0.0
2017-Apr-16 23:59N 50°50' W 001°20'0 0.0
2017-Apr-16 23:29N 50°50' W 001°20'0 0.0
2017-Apr-16 22:59N 50°50' W 001°20'0 0.0
2017-Apr-16 22:29N 50°50' W 001°20'0 0.0
2017-Apr-16 21:59N 50°50' W 001°20'0 0.0
2017-Apr-16 21:29N 50°51' W 001°20'0 0.0
2017-Apr-16 20:59N 50°50' W 001°20'0 0.0
2017-Apr-16 20:29N 50°50' W 001°20'0 0.0
2017-Apr-16 19:59N 50°50' W 001°20'0 0.0
2017-Apr-16 19:29N 50°50' W 001°20'0 0.0
2017-Apr-16 18:59N 50°50' W 001°20'0 0.0
2017-Apr-16 18:29N 50°50' W 001°20'0 0.0
2017-Apr-16 17:59N 50°50' W 001°20'0 0.0
2017-Apr-16 17:29N 50°50' W 001°20'0 0.0
2017-Apr-16 16:59N 50°50' W 001°20'0 0.0
2017-Apr-16 16:29N 50°51' W 001°20'0 0.0
2017-Apr-16 15:59N 50°51' W 001°20'0 0.0
2017-Apr-16 15:29N 50°50' W 001°20'0 0.0
2017-Apr-16 14:56N 50°50' W 001°20'2 2.0
2017-Apr-16 14:01N 50°49' W 001°18'3 5.8
2017-Apr-16 13:30N 50°47' W 001°15'4 7.8
2017-Apr-16 13:01N 50°46' W 001°09'4 7.9
2017-Apr-16 12:30N 50°44' W 001°04'3 6.0
2017-Apr-16 12:00N 50°43' W 000°59'3 5.5
2017-Apr-16 11:30N 50°40' W 000°58'3 6.7
2017-Apr-16 11:01N 50°38' W 001°01'0 0.3
2017-Apr-16 10:24N 50°38' W 001°01'0 0.0
2017-Apr-16 10:00N 50°38' W 001°01'0 0.0
2017-Apr-16 09:30N 50°38' W 001°01'0 0.0
2017-Apr-16 09:00N 50°38' W 001°01'0 0.0
2017-Apr-16 08:27N 50°38' W 001°01'0 0.1
2017-Apr-16 08:00N 50°38' W 001°01'0 0.1
2017-Apr-16 07:27N 50°38' W 001°01'0 0.2
2017-Apr-16 07:00N 50°38' W 001°01'0 0.1
2017-Apr-16 06:30N 50°38' W 001°02'0 0.0
2017-Apr-16 06:00N 50°38' W 001°02'0 0.0
2017-Apr-16 05:30N 50°38' W 001°02'0 0.0
2017-Apr-16 05:00N 50°38' W 001°02'0 0.0
2017-Apr-16 04:30N 50°38' W 001°02'0 0.0
2017-Apr-16 04:00N 50°38' W 001°02'0 0.0
2017-Apr-16 03:30N 50°38' W 001°02'0 0.0
2017-Apr-16 03:00N 50°38' W 001°02'0 0.1
2017-Apr-16 02:30N 50°38' W 001°02'0 0.3
2017-Apr-16 02:00N 50°38' W 001°01'0 0.2
2017-Apr-16 01:30N 50°38' W 001°01'0 0.0
2017-Apr-16 01:00N 50°38' W 001°01'0 0.2
2017-Apr-16 00:30N 50°38' W 001°01'0 0.0
2017-Apr-16 00:00N 50°38' W 001°01'0 0.0
2017-Apr-15 23:27N 50°38' W 001°01'0 0.0
2017-Apr-15 22:57N 50°38' W 001°01'0 0.0
2017-Apr-15 22:21N 50°38' W 001°01'0 0.0
2017-Apr-15 22:00N 50°38' W 001°01'0 0.0
2017-Apr-15 21:30N 50°38' W 001°01'0 0.0
2017-Apr-15 21:00N 50°38' W 001°01'0 0.0
2017-Apr-15 20:24N 50°38' W 001°01'0 0.0
2017-Apr-15 20:00N 50°38' W 001°01'0 0.0
2017-Apr-15 19:27N 50°38' W 001°01'0 0.2
2017-Apr-15 19:00N 50°38' W 001°01'0 0.2
2017-Apr-15 18:30N 50°38' W 001°01'0 0.1
2017-Apr-15 18:00N 50°38' W 001°02'0 0.0
2017-Apr-15 17:30N 50°38' W 001°02'0 0.0
2017-Apr-15 17:00N 50°38' W 001°02'0 0.0
2017-Apr-15 16:30N 50°38' W 001°02'0 0.0
2017-Apr-15 16:00N 50°38' W 001°02'0 0.0
2017-Apr-15 15:30N 50°38' W 001°02'0 0.0
2017-Apr-15 15:00N 50°38' W 001°02'0 0.0
2017-Apr-15 14:30N 50°38' W 001°02'0 0.2
2017-Apr-15 13:30N 50°38' W 001°01'0 0.1
2017-Apr-15 13:00N 50°38' W 001°01'0 0.1
2017-Apr-15 12:30N 50°38' W 001°01'0 0.1
2017-Apr-15 12:00N 50°38' W 001°01'0 0.0
2017-Apr-15 11:27N 50°38' W 001°01'0 0.0
2017-Apr-15 11:00N 50°38' W 001°01'0 0.0
2017-Apr-15 10:30N 50°38' W 001°01'0 0.0
2017-Apr-15 10:00N 50°38' W 001°01'0 0.0
2017-Apr-15 09:27N 50°38' W 001°01'0 0.0
2017-Apr-15 08:57N 50°38' W 001°01'0 0.0
2017-Apr-15 08:30N 50°38' W 001°01'0 0.0
2017-Apr-15 07:57N 50°38' W 001°01'0 0.0
2017-Apr-15 07:21N 50°38' W 001°01'0 0.2
2017-Apr-15 06:51N 50°38' W 001°01'0 0.3
2017-Apr-15 06:30N 50°38' W 001°01'0 0.1
2017-Apr-15 06:00N 50°38' W 001°02'0 0.0
2017-Apr-15 05:30N 50°38' W 001°02'0 0.0
2017-Apr-15 05:00N 50°38' W 001°02'0 0.0
2017-Apr-15 04:30N 50°38' W 001°02'0 0.0
2017-Apr-15 04:00N 50°38' W 001°02'0 0.0
2017-Apr-15 03:30N 50°38' W 001°02'0 0.0
2017-Apr-15 03:00N 50°38' W 001°02'0 0.0
2017-Apr-15 02:30N 50°38' W 001°02'0 0.2
2017-Apr-15 02:00N 50°38' W 001°01'0 0.4
2017-Apr-15 01:30N 50°38' W 001°01'0 0.1
2017-Apr-15 01:00N 50°38' W 001°01'0 0.0
2017-Apr-15 00:30N 50°38' W 001°01'0 0.0
2017-Apr-14 23:57N 50°38' W 001°01'0 0.0
2017-Apr-14 23:27N 50°38' W 001°01'0 0.0
2017-Apr-14 23:00N 50°38' W 001°01'0 0.0
2017-Apr-14 22:27N 50°38' W 001°01'0 0.0
2017-Apr-14 22:00N 50°38' W 001°01'0 0.0
2017-Apr-14 21:30N 50°38' W 001°01'0 0.0
2017-Apr-14 20:54N 50°38' W 001°01'0 0.0
2017-Apr-14 20:24N 50°38' W 001°01'0 0.0
2017-Apr-14 19:57N 50°38' W 001°01'0 0.1
2017-Apr-14 19:30N 50°38' W 001°01'0 0.0
2017-Apr-14 19:00N 50°38' W 001°01'0 0.2
2017-Apr-14 18:30N 50°38' W 001°01'0 0.3
2017-Apr-14 18:01N 50°38' W 001°01'1 2.6
2017-Apr-14 17:31N 50°39' W 000°60'4 8.2
2017-Apr-14 17:00N 50°43' W 000°59'713.4
2017-Apr-14 16:30N 50°46' W 001°09'612.6
2017-Apr-14 16:00N 50°47' W 001°19'4 7.8
2017-Apr-14 15:31N 50°51' W 001°20'0 0.1
2017-Apr-14 14:59N 50°51' W 001°20'0 0.0
2017-Apr-14 14:29N 50°51' W 001°20'0 0.0
2017-Apr-14 13:29N 50°51' W 001°20'0 0.0
2017-Apr-14 12:59N 50°51' W 001°20'0 0.0
2017-Apr-14 12:29N 50°51' W 001°20'0 0.0
2017-Apr-14 11:59N 50°51' W 001°20'0 0.0
2017-Apr-14 11:29N 50°51' W 001°20'0 0.0
2017-Apr-14 10:59N 50°51' W 001°20'0 0.0
2017-Apr-14 10:29N 50°51' W 001°20'0 0.0
2017-Apr-14 09:59N 50°51' W 001°20'0 0.0
2017-Apr-14 09:26N 50°51' W 001°20'0 0.0
2017-Apr-14 08:59N 50°51' W 001°20'0 0.0
2017-Apr-14 08:29N 50°51' W 001°20'0 0.0
2017-Apr-14 07:56N 50°51' W 001°20'0 0.0
2017-Apr-14 07:29N 50°51' W 001°20'0 0.0
2017-Apr-14 06:59N 50°51' W 001°20'0 0.0
2017-Apr-14 06:26N 50°51' W 001°20'0 0.0
2017-Apr-14 05:59N 50°51' W 001°20'0 0.0
2017-Apr-14 05:29N 50°51' W 001°20'0 0.0
2017-Apr-14 04:59N 50°51' W 001°20'0 0.0
2017-Apr-14 04:29N 50°51' W 001°20'0 0.0
2017-Apr-14 03:59N 50°51' W 001°20'0 0.0
2017-Apr-14 03:29N 50°51' W 001°20'0 0.0
2017-Apr-14 02:59N 50°51' W 001°20'0 0.0
2017-Apr-14 02:29N 50°51' W 001°20'0 0.0
2017-Apr-14 01:59N 50°51' W 001°20'0 0.0
2017-Apr-14 01:29N 50°51' W 001°20'0 0.0
2017-Apr-14 00:59N 50°51' W 001°20'0 0.0
2017-Apr-14 00:29N 50°51' W 001°20'  

Dump ship's entire track history